Terminal Aerodrome Forecast
Issued by NWS

Home | Current Version | Previous Version | Text Only | Print | Product List | Glossary On
Versions: 1 2 3 4 5 6 7 8 9 10 11 12 13
742
FTUS46 KPDT 250520
TAFYKM
TAF
KYKM 250520Z 2506/2606 33008G15KT P6SM SCT070 BKN150
     FM251000 28007KT P6SM SCT060 BKN120
     FM251900 VRB05KT P6SM VCTS BKN050CB OVC080
     FM260300 VRB05KT P6SM SCT080 BKN120=

USA.gov is the U.S. government's official web portal to all federal, state and local government web resources and services.